sensor_id;sensor_type;location;lat;lon;timestamp;P1;durP1;ratioP1;P2;durP2;ratioP2
76989;SDS011;65924;47.250;11.332;2024-02-21T00:00:27;4.10;;;1.60;;
76989;SDS011;65924;47.250;11.332;2024-02-21T00:00:58;3.10;;;1.30;;
76989;SDS011;65924;47.250;11.332;2024-02-21T00:01:29;3.80;;;1.30;;
76989;SDS011;65924;47.250;11.332;2024-02-21T00:02:00;3.70;;;1.50;;
76989;SDS011;65924;47.250;11.332;2024-02-21T00:02:30;4.00;;;2.20;;
76989;SDS011;65924;47.250;11.332;2024-02-21T00:03:01;6.10;;;1.50;;
76989;SDS011;65924;47.250;11.332;2024-02-21T00:03:34;4.30;;;1.80;;
76989;SDS011;65924;47.250;11.332;2024-02-21T00:04:05;3.60;;;1.70;;
76989;SDS011;65924;47.250;11.332;2024-02-21T00:04:36;4.80;;;2.00;;
76989;SDS011;65924;47.250;11.332;2024-02-21T00:05:07;3.80;;;1.60;;
76989;SDS011;65924;47.250;11.332;2024-02-21T00:05:38;4.50;;;2.20;;
76989;SDS011;65924;47.250;11.332;2024-02-21T00:06:08;5.20;;;1.80;;
76989;SDS011;65924;47.250;11.332;2024-02-21T00:06:39;4.00;;;1.60;;
76989;SDS011;65924;47.250;11.332;2024-02-21T00:07:09;3.90;;;1.60;;
76989;SDS011;65924;47.250;11.332;2024-02-21T00:07:40;4.70;;;1.80;;
76989;SDS011;65924;47.250;11.332;2024-02-21T00:08:11;4.20;;;1.50;;
76989;SDS011;65924;47.250;11.332;2024-02-21T00:08:41;4.80;;;1.90;;
76989;SDS011;65924;47.250;11.332;2024-02-21T00:09:13;5.90;;;2.70;;
76989;SDS011;65924;47.250;11.332;2024-02-21T00:09:43;5.20;;;2.80;;
76989;SDS011;65924;47.250;11.332;2024-02-21T00:10:15;7.70;;;3.00;;
76989;SDS011;65924;47.250;11.332;2024-02-21T00:10:45;5.30;;;2.80;;
76989;SDS011;65924;47.250;11.332;2024-02-21T00:11:16;5.70;;;2.50;;
76989;SDS011;65924;47.250;11.332;2024-02-21T00:11:47;5.50;;;2.30;;
76989;SDS011;65924;47.250;11.332;2024-02-21T00:12:18;5.40;;;2.00;;
76989;SDS011;65924;47.250;11.332;2024-02-21T00:12:48;4.40;;;1.60;;
76989;SDS011;65924;47.250;11.332;2024-02-21T00:13:19;4.10;;;1.70;;
76989;SDS011;65924;47.250;11.332;2024-02-21T00:13:50;4.40;;;2.00;;
76989;SDS011;65924;47.250;11.332;2024-02-21T00:14:20;5.80;;;1.90;;
76989;SDS011;65924;47.250;11.332;2024-02-21T00:14:52;4.90;;;2.00;;
76989;SDS011;65924;47.250;11.332;2024-02-21T00:15:22;4.80;;;1.90;;
76989;SDS011;65924;47.250;11.332;2024-02-21T00:15:53;5.20;;;1.90;;
76989;SDS011;65924;47.250;11.332;2024-02-21T00:16:23;4.40;;;2.10;;
76989;SDS011;65924;47.250;11.332;2024-02-21T00:16:54;5.90;;;2.50;;
76989;SDS011;65924;47.250;11.332;2024-02-21T00:17:24;6.50;;;2.60;;
76989;SDS011;65924;47.250;11.332;2024-02-21T00:17:56;5.20;;;2.30;;
76989;SDS011;65924;47.250;11.332;2024-02-21T00:18:27;5.70;;;2.60;;
76989;SDS011;65924;47.250;11.332;2024-02-21T00:18:58;4.30;;;1.90;;
76989;SDS011;65924;47.250;11.332;2024-02-21T00:19:29;5.10;;;2.60;;
76989;SDS011;65924;47.250;11.332;2024-02-21T00:20:00;6.10;;;2.00;;
76989;SDS011;65924;47.250;11.332;2024-02-21T00:20:30;5.00;;;2.10;;
76989;SDS011;65924;47.250;11.332;2024-02-21T00:21:01;4.30;;;1.80;;
76989;SDS011;65924;47.250;11.332;2024-02-21T00:21:31;4.50;;;2.10;;
76989;SDS011;65924;47.250;11.332;2024-02-21T00:22:02;5.70;;;2.40;;
76989;SDS011;65924;47.250;11.332;2024-02-21T00:22:34;6.10;;;2.00;;
76989;SDS011;65924;47.250;11.332;2024-02-21T00:23:04;4.90;;;2.10;;
76989;SDS011;65924;47.250;11.332;2024-02-21T00:23:35;4.70;;;2.10;;
76989;SDS011;65924;47.250;11.332;2024-02-21T00:24:05;5.00;;;2.40;;
76989;SDS011;65924;47.250;11.332;2024-02-21T00:24:36;4.60;;;2.10;;
76989;SDS011;65924;47.250;11.332;2024-02-21T00:25:07;4.20;;;2.10;;
76989;SDS011;65924;47.250;11.332;2024-02-21T00:25:38;3.70;;;1.60;;
76989;SDS011;65924;47.250;11.332;2024-02-21T00:26:09;4.10;;;1.50;;
76989;SDS011;65924;47.250;11.332;2024-02-21T00:26:39;4.10;;;1.70;;
76989;SDS011;65924;47.250;11.332;2024-02-21T00:27:10;4.30;;;1.80;;
76989;SDS011;65924;47.250;11.332;2024-02-21T00:27:40;3.30;;;1.40;;
76989;SDS011;65924;47.250;11.332;2024-02-21T00:28:11;3.90;;;1.80;;
76989;SDS011;65924;47.250;11.332;2024-02-21T00:28:41;6.10;;;2.00;;
76989;SDS011;65924;47.250;11.332;2024-02-21T00:29:12;3.70;;;1.70;;
76989;SDS011;65924;47.250;11.332;2024-02-21T00:29:43;4.00;;;1.80;;
76989;SDS011;65924;47.250;11.332;2024-02-21T00:30:13;4.00;;;2.00;;
76989;SDS011;65924;47.250;11.332;2024-02-21T00:30:44;4.60;;;2.20;;
76989;SDS011;65924;47.250;11.332;2024-02-21T00:31:14;5.00;;;2.40;;
76989;SDS011;65924;47.250;11.332;2024-02-21T00:31:45;6.80;;;2.90;;
76989;SDS011;65924;47.250;11.332;2024-02-21T00:32:15;6.60;;;2.90;;
76989;SDS011;65924;47.250;11.332;2024-02-21T00:32:46;5.30;;;2.80;;
76989;SDS011;65924;47.250;11.332;2024-02-21T00:33:17;5.00;;;2.10;;
76989;SDS011;65924;47.250;11.332;2024-02-21T00:33:48;6.20;;;2.60;;
76989;SDS011;65924;47.250;11.332;2024-02-21T00:34:18;5.00;;;2.50;;
76989;SDS011;65924;47.250;11.332;2024-02-21T00:34:49;5.10;;;2.60;;
76989;SDS011;65924;47.250;11.332;2024-02-21T00:35:19;5.10;;;2.60;;
76989;SDS011;65924;47.250;11.332;2024-02-21T00:35:50;5.50;;;2.40;;
76989;SDS011;65924;47.250;11.332;2024-02-21T00:36:21;4.40;;;2.10;;
76989;SDS011;65924;47.250;11.332;2024-02-21T00:36:54;6.90;;;1.90;;
76989;SDS011;65924;47.250;11.332;2024-02-21T00:37:24;4.00;;;1.80;;
76989;SDS011;65924;47.250;11.332;2024-02-21T00:37:55;6.20;;;2.10;;
76989;SDS011;65924;47.250;11.332;2024-02-21T00:38:27;4.30;;;1.90;;
76989;SDS011;65924;47.250;11.332;2024-02-21T00:38:58;6.00;;;1.90;;
76989;SDS011;65924;47.250;11.332;2024-02-21T00:39:28;4.20;;;1.80;;
76989;SDS011;65924;47.250;11.332;2024-02-21T00:39:59;5.40;;;1.90;;
76989;SDS011;65924;47.250;11.332;2024-02-21T00:40:29;4.20;;;1.70;;
76989;SDS011;65924;47.250;11.332;2024-02-21T00:41:00;3.80;;;1.40;;
76989;SDS011;65924;47.250;11.332;2024-02-21T00:41:30;3.70;;;1.30;;
76989;SDS011;65924;47.250;11.332;2024-02-21T00:42:01;2.90;;;1.10;;
76989;SDS011;65924;47.250;11.332;2024-02-21T00:42:32;3.10;;;1.10;;
76989;SDS011;65924;47.250;11.332;2024-02-21T00:43:03;3.50;;;1.40;;
76989;SDS011;65924;47.250;11.332;2024-02-21T00:43:34;2.70;;;1.10;;
76989;SDS011;65924;47.250;11.332;2024-02-21T00:44:04;3.50;;;1.40;;
76989;SDS011;65924;47.250;11.332;2024-02-21T00:44:36;3.90;;;1.50;;
76989;SDS011;65924;47.250;11.332;2024-02-21T00:45:07;3.30;;;1.10;;
76989;SDS011;65924;47.250;11.332;2024-02-21T00:45:38;4.60;;;1.60;;
76989;SDS011;65924;47.250;11.332;2024-02-21T00:46:08;4.20;;;1.30;;
76989;SDS011;65924;47.250;11.332;2024-02-21T00:46:39;3.00;;;1.30;;
76989;SDS011;65924;47.250;11.332;2024-02-21T00:47:10;3.30;;;1.20;;
76989;SDS011;65924;47.250;11.332;2024-02-21T00:47:41;4.20;;;1.40;;
76989;SDS011;65924;47.250;11.332;2024-02-21T00:48:11;3.40;;;1.40;;
76989;SDS011;65924;47.250;11.332;2024-02-21T00:48:42;3.40;;;1.50;;
76989;SDS011;65924;47.250;11.332;2024-02-21T00:49:12;4.00;;;1.70;;
76989;SDS011;65924;47.250;11.332;2024-02-21T00:49:43;3.30;;;1.20;;
76989;SDS011;65924;47.250;11.332;2024-02-21T00:50:16;4.30;;;1.40;;
76989;SDS011;65924;47.250;11.332;2024-02-21T00:50:47;3.80;;;1.50;;
76989;SDS011;65924;47.250;11.332;2024-02-21T00:51:18;4.10;;;1.40;;
76989;SDS011;65924;47.250;11.332;2024-02-21T00:51:48;4.00;;;1.50;;
76989;SDS011;65924;47.250;11.332;2024-02-21T00:52:19;4.20;;;2.00;;
76989;SDS011;65924;47.250;11.332;2024-02-21T00:52:49;5.20;;;2.20;;
76989;SDS011;65924;47.250;11.332;2024-02-21T00:53:23;4.50;;;2.20;;
76989;SDS011;65924;47.250;11.332;2024-02-21T00:53:54;5.80;;;2.00;;
76989;SDS011;65924;47.250;11.332;2024-02-21T00:54:25;4.00;;;1.70;;
76989;SDS011;65924;47.250;11.332;2024-02-21T00:54:55;5.20;;;2.00;;
76989;SDS011;65924;47.250;11.332;2024-02-21T00:55:26;4.10;;;1.90;;
76989;SDS011;65924;47.250;11.332;2024-02-21T00:55:56;4.40;;;1.80;;
76989;SDS011;65924;47.250;11.332;2024-02-21T00:56:27;5.40;;;2.10;;
76989;SDS011;65924;47.250;11.332;2024-02-21T00:56:58;4.80;;;1.80;;
76989;SDS011;65924;47.250;11.332;2024-02-21T00:57:28;4.00;;;1.40;;
76989;SDS011;65924;47.250;11.332;2024-02-21T00:57:59;4.40;;;1.70;;
76989;SDS011;65924;47.250;11.332;2024-02-21T00:58:30;3.70;;;1.70;;
76989;SDS011;65924;47.250;11.332;2024-02-21T00:59:00;4.60;;;1.80;;
76989;SDS011;65924;47.250;11.332;2024-02-21T00:59:31;4.10;;;1.50;;
76989;SDS011;65924;47.250;11.332;2024-02-21T01:00:03;3.60;;;1.80;;
76989;SDS011;65924;47.250;11.332;2024-02-21T01:00:34;3.60;;;1.60;;
76989;SDS011;65924;47.250;11.332;2024-02-21T01:01:04;5.50;;;1.80;;
76989;SDS011;65924;47.250;11.332;2024-02-21T01:01:35;4.90;;;2.60;;
76989;SDS011;65924;47.250;11.332;2024-02-21T01:02:06;3.70;;;1.80;;
76989;SDS011;65924;47.250;11.332;2024-02-21T01:02:37;5.40;;;2.40;;
76989;SDS011;65924;47.250;11.332;2024-02-21T01:03:08;4.20;;;1.70;;
76989;SDS011;65924;47.250;11.332;2024-02-21T01:03:39;4.60;;;1.60;;
76989;SDS011;65924;47.250;11.332;2024-02-21T01:04:10;3.80;;;1.80;;
76989;SDS011;65924;47.250;11.332;2024-02-21T01:04:41;3.90;;;1.40;;
76989;SDS011;65924;47.250;11.332;2024-02-21T01:05:11;3.40;;;1.00;;
76989;SDS011;65924;47.250;11.332;2024-02-21T01:05:42;3.80;;;1.30;;
76989;SDS011;65924;47.250;11.332;2024-02-21T01:06:12;3.80;;;1.40;;
76989;SDS011;65924;47.250;11.332;2024-02-21T01:06:43;3.40;;;1.70;;
76989;SDS011;65924;47.250;11.332;2024-02-21T01:07:14;3.60;;;1.40;;
76989;SDS011;65924;47.250;11.332;2024-02-21T01:07:45;3.20;;;1.60;;
76989;SDS011;65924;47.250;11.332;2024-02-21T01:08:16;3.50;;;1.40;;
76989;SDS011;65924;47.250;11.332;2024-02-21T01:08:48;2.90;;;1.40;;
76989;SDS011;65924;47.250;11.332;2024-02-21T01:09:18;3.50;;;1.30;;
76989;SDS011;65924;47.250;11.332;2024-02-21T01:09:49;3.70;;;1.50;;
76989;SDS011;65924;47.250;11.332;2024-02-21T01:10:21;5.40;;;1.40;;
76989;SDS011;65924;47.250;11.332;2024-02-21T01:10:53;3.70;;;1.50;;
76989;SDS011;65924;47.250;11.332;2024-02-21T01:11:23;3.30;;;1.10;;
76989;SDS011;65924;47.250;11.332;2024-02-21T01:11:54;3.20;;;1.20;;
76989;SDS011;65924;47.250;11.332;2024-02-21T01:12:25;3.70;;;1.50;;
76989;SDS011;65924;47.250;11.332;2024-02-21T01:12:55;3.50;;;1.50;;
76989;SDS011;65924;47.250;11.332;2024-02-21T01:13:26;3.60;;;1.50;;
76989;SDS011;65924;47.250;11.332;2024-02-21T01:13:56;3.10;;;1.40;;
76989;SDS011;65924;47.250;11.332;2024-02-21T01:14:27;4.10;;;1.60;;
76989;SDS011;65924;47.250;11.332;2024-02-21T01:14:58;3.80;;;1.50;;
76989;SDS011;65924;47.250;11.332;2024-02-21T01:15:29;4.30;;;1.70;;
76989;SDS011;65924;47.250;11.332;2024-02-21T01:15:59;3.30;;;1.30;;
76989;SDS011;65924;47.250;11.332;2024-02-21T01:16:30;4.10;;;1.80;;
76989;SDS011;65924;47.250;11.332;2024-02-21T01:17:01;6.20;;;2.00;;
76989;SDS011;65924;47.250;11.332;2024-02-21T01:17:35;4.20;;;1.70;;
76989;SDS011;65924;47.250;11.332;2024-02-21T01:18:06;4.60;;;1.90;;
76989;SDS011;65924;47.250;11.332;2024-02-21T01:18:37;4.10;;;1.80;;
76989;SDS011;65924;47.250;11.332;2024-02-21T01:19:11;6.20;;;2.90;;
76989;SDS011;65924;47.250;11.332;2024-02-21T01:19:41;4.50;;;2.00;;
76989;SDS011;65924;47.250;11.332;2024-02-21T01:20:12;5.50;;;2.10;;
76989;SDS011;65924;47.250;11.332;2024-02-21T01:20:43;6.50;;;1.90;;
76989;SDS011;65924;47.250;11.332;2024-02-21T01:21:13;4.30;;;1.90;;
76989;SDS011;65924;47.250;11.332;2024-02-21T01:21:44;4.80;;;2.00;;
76989;SDS011;65924;47.250;11.332;2024-02-21T01:22:15;4.70;;;1.80;;
76989;SDS011;65924;47.250;11.332;2024-02-21T01:22:46;5.20;;;2.00;;
76989;SDS011;65924;47.250;11.332;2024-02-21T01:23:17;4.80;;;2.20;;
76989;SDS011;65924;47.250;11.332;2024-02-21T01:23:48;5.80;;;2.20;;
76989;SDS011;65924;47.250;11.332;2024-02-21T01:24:18;5.50;;;2.50;;
76989;SDS011;65924;47.250;11.332;2024-02-21T01:24:49;4.90;;;2.60;;
76989;SDS011;65924;47.250;11.332;2024-02-21T01:25:19;5.30;;;2.60;;
76989;SDS011;65924;47.250;11.332;2024-02-21T01:25:50;6.40;;;3.00;;
76989;SDS011;65924;47.250;11.332;2024-02-21T01:26:21;7.00;;;2.60;;
76989;SDS011;65924;47.250;11.332;2024-02-21T01:26:52;7.00;;;2.40;;
76989;SDS011;65924;47.250;11.332;2024-02-21T01:27:22;5.60;;;2.50;;
76989;SDS011;65924;47.250;11.332;2024-02-21T01:27:53;4.60;;;2.10;;
76989;SDS011;65924;47.250;11.332;2024-02-21T01:28:23;5.40;;;2.20;;
76989;SDS011;65924;47.250;11.332;2024-02-21T01:28:54;4.50;;;2.10;;
76989;SDS011;65924;47.250;11.332;2024-02-21T01:29:24;5.30;;;2.10;;
76989;SDS011;65924;47.250;11.332;2024-02-21T01:29:55;5.10;;;2.00;;
76989;SDS011;65924;47.250;11.332;2024-02-21T01:30:25;5.00;;;2.00;;
76989;SDS011;65924;47.250;11.332;2024-02-21T01:30:56;5.60;;;2.10;;
76989;SDS011;65924;47.250;11.332;2024-02-21T01:31:27;5.20;;;1.80;;
76989;SDS011;65924;47.250;11.332;2024-02-21T01:31:58;4.90;;;1.90;;
76989;SDS011;65924;47.250;11.332;2024-02-21T01:32:28;3.40;;;1.50;;
76989;SDS011;65924;47.250;11.332;2024-02-21T01:32:59;4.20;;;1.70;;
76989;SDS011;65924;47.250;11.332;2024-02-21T01:33:30;5.00;;;1.80;;
76989;SDS011;65924;47.250;11.332;2024-02-21T01:34:05;5.10;;;2.00;;
76989;SDS011;65924;47.250;11.332;2024-02-21T01:34:35;4.70;;;1.90;;
76989;SDS011;65924;47.250;11.332;2024-02-21T01:35:07;4.60;;;2.10;;
76989;SDS011;65924;47.250;11.332;2024-02-21T01:35:38;5.00;;;2.50;;
76989;SDS011;65924;47.250;11.332;2024-02-21T01:36:09;4.40;;;2.00;;
76989;SDS011;65924;47.250;11.332;2024-02-21T01:36:39;3.90;;;1.90;;
76989;SDS011;65924;47.250;11.332;2024-02-21T01:37:11;4.60;;;1.70;;
76989;SDS011;65924;47.250;11.332;2024-02-21T01:37:42;3.60;;;2.10;;
76989;SDS011;65924;47.250;11.332;2024-02-21T01:38:13;3.80;;;1.80;;
76989;SDS011;65924;47.250;11.332;2024-02-21T01:38:43;3.80;;;1.40;;
76989;SDS011;65924;47.250;11.332;2024-02-21T01:39:14;3.90;;;1.80;;
76989;SDS011;65924;47.250;11.332;2024-02-21T01:39:45;5.50;;;2.10;;
76989;SDS011;65924;47.250;11.332;2024-02-21T01:40:15;4.30;;;2.30;;
76989;SDS011;65924;47.250;11.332;2024-02-21T01:40:46;5.40;;;1.90;;
76989;SDS011;65924;47.250;11.332;2024-02-21T01:41:17;4.20;;;1.80;;
76989;SDS011;65924;47.250;11.332;2024-02-21T01:41:47;5.90;;;1.90;;
76989;SDS011;65924;47.250;11.332;2024-02-21T01:42:18;4.30;;;1.80;;
76989;SDS011;65924;47.250;11.332;2024-02-21T01:42:48;3.90;;;1.90;;
76989;SDS011;65924;47.250;11.332;2024-02-21T01:43:19;3.70;;;1.70;;
76989;SDS011;65924;47.250;11.332;2024-02-21T01:43:51;4.50;;;1.80;;
76989;SDS011;65924;47.250;11.332;2024-02-21T01:44:22;4.10;;;1.70;;
76989;SDS011;65924;47.250;11.332;2024-02-21T01:44:52;3.80;;;2.20;;
76989;SDS011;65924;47.250;11.332;2024-02-21T01:45:23;3.60;;;1.60;;
76989;SDS011;65924;47.250;11.332;2024-02-21T01:45:55;3.60;;;1.20;;
76989;SDS011;65924;47.250;11.332;2024-02-21T01:46:26;3.90;;;1.80;;
76989;SDS011;65924;47.250;11.332;2024-02-21T01:46:58;3.50;;;1.40;;
76989;SDS011;65924;47.250;11.332;2024-02-21T01:47:29;4.40;;;1.70;;
76989;SDS011;65924;47.250;11.332;2024-02-21T01:48:00;5.50;;;2.10;;
76989;SDS011;65924;47.250;11.332;2024-02-21T01:48:31;4.30;;;1.80;;
76989;SDS011;65924;47.250;11.332;2024-02-21T01:49:01;4.10;;;1.50;;
76989;SDS011;65924;47.250;11.332;2024-02-21T01:49:32;3.70;;;1.70;;
76989;SDS011;65924;47.250;11.332;2024-02-21T01:50:03;4.70;;;1.90;;
76989;SDS011;65924;47.250;11.332;2024-02-21T01:50:34;4.00;;;2.20;;
76989;SDS011;65924;47.250;11.332;2024-02-21T01:51:06;4.40;;;1.70;;
76989;SDS011;65924;47.250;11.332;2024-02-21T01:51:37;3.70;;;1.50;;
76989;SDS011;65924;47.250;11.332;2024-02-21T01:52:09;4.40;;;2.20;;
76989;SDS011;65924;47.250;11.332;2024-02-21T01:52:42;4.10;;;1.80;;
76989;SDS011;65924;47.250;11.332;2024-02-21T01:53:26;6.10;;;1.80;;
76989;SDS011;65924;47.250;11.332;2024-02-21T01:54:00;5.30;;;1.60;;
76989;SDS011;65924;47.250;11.332;2024-02-21T01:54:31;4.10;;;1.90;;
76989;SDS011;65924;47.250;11.332;2024-02-21T01:55:02;3.60;;;1.30;;
76989;SDS011;65924;47.250;11.332;2024-02-21T01:56:05;4.10;;;2.00;;
76989;SDS011;65924;47.250;11.332;2024-02-21T01:56:37;4.10;;;1.40;;
76989;SDS011;65924;47.250;11.332;2024-02-21T01:57:08;4.10;;;1.90;;
76989;SDS011;65924;47.250;11.332;2024-02-21T01:57:39;3.20;;;1.30;;
76989;SDS011;65924;47.250;11.332;2024-02-21T01:58:14;4.80;;;1.40;;
76989;SDS011;65924;47.250;11.332;2024-02-21T01:58:47;4.50;;;1.80;;
76989;SDS011;65924;47.250;11.332;2024-02-21T01:59:18;3.80;;;1.60;;
76989;SDS011;65924;47.250;11.332;2024-02-21T01:59:51;4.90;;;1.90;;
76989;SDS011;65924;47.250;11.332;2024-02-21T02:00:22;3.60;;;1.80;;
76989;SDS011;65924;47.250;11.332;2024-02-21T02:00:54;3.60;;;1.50;;
76989;SDS011;65924;47.250;11.332;2024-02-21T02:01:26;3.30;;;1.30;;
76989;SDS011;65924;47.250;11.332;2024-02-21T02:01:58;3.90;;;1.90;;
76989;SDS011;65924;47.250;11.332;2024-02-21T02:02:30;4.20;;;2.50;;
76989;SDS011;65924;47.250;11.332;2024-02-21T02:03:01;4.20;;;2.20;;
76989;SDS011;65924;47.250;11.332;2024-02-21T02:03:34;4.00;;;1.70;;
76989;SDS011;65924;47.250;11.332;2024-02-21T02:04:05;4.40;;;1.90;;
76989;SDS011;65924;47.250;11.332;2024-02-21T02:04:37;4.30;;;2.20;;
76989;SDS011;65924;47.250;11.332;2024-02-21T02:05:12;4.00;;;1.70;;
76989;SDS011;65924;47.250;11.332;2024-02-21T02:05:47;4.50;;;1.90;;
76989;SDS011;65924;47.250;11.332;2024-02-21T02:06:18;4.10;;;1.90;;
76989;SDS011;65924;47.250;11.332;2024-02-21T02:06:49;3.90;;;1.60;;
76989;SDS011;65924;47.250;11.332;2024-02-21T02:07:21;4.70;;;2.20;;
76989;SDS011;65924;47.250;11.332;2024-02-21T02:07:51;5.40;;;2.00;;
76989;SDS011;65924;47.250;11.332;2024-02-21T02:08:22;4.70;;;2.00;;
76989;SDS011;65924;47.250;11.332;2024-02-21T02:08:53;4.10;;;1.90;;
76989;SDS011;65924;47.250;11.332;2024-02-21T02:09:24;4.10;;;1.80;;
76989;SDS011;65924;47.250;11.332;2024-02-21T02:09:55;4.20;;;1.80;;
76989;SDS011;65924;47.250;11.332;2024-02-21T02:10:26;6.90;;;2.20;;
76989;SDS011;65924;47.250;11.332;2024-02-21T02:10:57;4.70;;;2.30;;
76989;SDS011;65924;47.250;11.332;2024-02-21T02:11:28;4.10;;;1.90;;
76989;SDS011;65924;47.250;11.332;2024-02-21T02:11:58;4.00;;;1.80;;
76989;SDS011;65924;47.250;11.332;2024-02-21T02:12:30;4.10;;;2.40;;
76989;SDS011;65924;47.250;11.332;2024-02-21T02:13:01;4.20;;;1.70;;
76989;SDS011;65924;47.250;11.332;2024-02-21T02:13:31;5.70;;;2.40;;
76989;SDS011;65924;47.250;11.332;2024-02-21T02:14:02;4.50;;;1.80;;
76989;SDS011;65924;47.250;11.332;2024-02-21T02:14:33;4.20;;;1.70;;
76989;SDS011;65924;47.250;11.332;2024-02-21T02:15:04;4.90;;;1.90;;
76989;SDS011;65924;47.250;11.332;2024-02-21T02:15:38;4.20;;;1.70;;
76989;SDS011;65924;47.250;11.332;2024-02-21T02:16:09;4.70;;;1.70;;
76989;SDS011;65924;47.250;11.332;2024-02-21T02:16:40;4.00;;;2.10;;
76989;SDS011;65924;47.250;11.332;2024-02-21T02:17:11;5.20;;;1.80;;
76989;SDS011;65924;47.250;11.332;2024-02-21T02:17:42;4.30;;;2.00;;
76989;SDS011;65924;47.250;11.332;2024-02-21T02:18:13;4.80;;;2.70;;
76989;SDS011;65924;47.250;11.332;2024-02-21T02:18:44;4.40;;;1.90;;
76989;SDS011;65924;47.250;11.332;2024-02-21T02:19:15;4.20;;;2.10;;
76989;SDS011;65924;47.250;11.332;2024-02-21T02:19:46;4.60;;;2.00;;
76989;SDS011;65924;47.250;11.332;2024-02-21T02:20:16;3.90;;;1.90;;
76989;SDS011;65924;47.250;11.332;2024-02-21T02:20:48;4.10;;;2.00;;
76989;SDS011;65924;47.250;11.332;2024-02-21T02:21:23;6.00;;;2.30;;
76989;SDS011;65924;47.250;11.332;2024-02-21T02:22:00;4.50;;;1.90;;
76989;SDS011;65924;47.250;11.332;2024-02-21T02:22:39;4.10;;;2.00;;
76989;SDS011;65924;47.250;11.332;2024-02-21T02:24:05;3.70;;;1.60;;
76989;SDS011;65924;47.250;11.332;2024-02-21T02:24:36;3.60;;;1.80;;
76989;SDS011;65924;47.250;11.332;2024-02-21T02:25:07;4.70;;;2.00;;
76989;SDS011;65924;47.250;11.332;2024-02-21T02:25:38;4.40;;;1.30;;
76989;SDS011;65924;47.250;11.332;2024-02-21T02:26:09;4.30;;;1.80;;
76989;SDS011;65924;47.250;11.332;2024-02-21T02:26:40;4.60;;;1.70;;
76989;SDS011;65924;47.250;11.332;2024-02-21T02:27:11;3.50;;;1.60;;
76989;SDS011;65924;47.250;11.332;2024-02-21T02:27:42;4.10;;;1.50;;
76989;SDS011;65924;47.250;11.332;2024-02-21T02:28:14;3.80;;;1.80;;
76989;SDS011;65924;47.250;11.332;2024-02-21T02:28:45;5.00;;;1.80;;
76989;SDS011;65924;47.250;11.332;2024-02-21T02:29:16;3.30;;;1.30;;
76989;SDS011;65924;47.250;11.332;2024-02-21T02:29:47;5.00;;;1.50;;
76989;SDS011;65924;47.250;11.332;2024-02-21T02:30:18;3.60;;;1.50;;
76989;SDS011;65924;47.250;11.332;2024-02-21T02:30:49;3.50;;;1.60;;
76989;SDS011;65924;47.250;11.332;2024-02-21T02:31:20;4.30;;;2.00;;
76989;SDS011;65924;47.250;11.332;2024-02-21T02:31:50;4.20;;;1.60;;
76989;SDS011;65924;47.250;11.332;2024-02-21T02:32:21;3.50;;;1.70;;
76989;SDS011;65924;47.250;11.332;2024-02-21T02:32:52;3.70;;;1.60;;
76989;SDS011;65924;47.250;11.332;2024-02-21T02:33:22;4.60;;;1.70;;
76989;SDS011;65924;47.250;11.332;2024-02-21T02:33:53;3.40;;;1.50;;
76989;SDS011;65924;47.250;11.332;2024-02-21T02:34:24;3.30;;;1.50;;
76989;SDS011;65924;47.250;11.332;2024-02-21T02:34:55;4.00;;;1.60;;
76989;SDS011;65924;47.250;11.332;2024-02-21T02:35:26;4.10;;;1.70;;
76989;SDS011;65924;47.250;11.332;2024-02-21T02:35:57;4.70;;;1.90;;
76989;SDS011;65924;47.250;11.332;2024-02-21T02:36:30;7.40;;;2.20;;
76989;SDS011;65924;47.250;11.332;2024-02-21T02:37:03;5.70;;;2.10;;
76989;SDS011;65924;47.250;11.332;2024-02-21T02:37:34;3.60;;;1.70;;
76989;SDS011;65924;47.250;11.332;2024-02-21T02:38:04;5.40;;;2.40;;
76989;SDS011;65924;47.250;11.332;2024-02-21T02:38:36;4.30;;;2.20;;
76989;SDS011;65924;47.250;11.332;2024-02-21T02:39:07;3.40;;;2.00;;
76989;SDS011;65924;47.250;11.332;2024-02-21T02:39:38;5.40;;;1.70;;
76989;SDS011;65924;47.250;11.332;2024-02-21T02:40:09;4.80;;;1.90;;
76989;SDS011;65924;47.250;11.332;2024-02-21T02:40:43;4.80;;;1.90;;
76989;SDS011;65924;47.250;11.332;2024-02-21T02:41:14;5.70;;;2.10;;
76989;SDS011;65924;47.250;11.332;2024-02-21T02:41:45;4.60;;;2.00;;
76989;SDS011;65924;47.250;11.332;2024-02-21T02:42:15;4.60;;;1.90;;
76989;SDS011;65924;47.250;11.332;2024-02-21T02:42:48;4.00;;;1.80;;
76989;SDS011;65924;47.250;11.332;2024-02-21T02:43:19;4.60;;;2.10;;
76989;SDS011;65924;47.250;11.332;2024-02-21T02:43:53;5.10;;;2.20;;
76989;SDS011;65924;47.250;11.332;2024-02-21T02:44:23;4.00;;;1.90;;
76989;SDS011;65924;47.250;11.332;2024-02-21T02:44:54;3.90;;;2.00;;
76989;SDS011;65924;47.250;11.332;2024-02-21T02:45:25;4.30;;;2.00;;
76989;SDS011;65924;47.250;11.332;2024-02-21T02:45:58;4.40;;;1.90;;
76989;SDS011;65924;47.250;11.332;2024-02-21T02:46:29;4.90;;;1.60;;
76989;SDS011;65924;47.250;11.332;2024-02-21T02:47:00;3.80;;;1.60;;
76989;SDS011;65924;47.250;11.332;2024-02-21T02:47:30;4.20;;;2.30;;
76989;SDS011;65924;47.250;11.332;2024-02-21T02:48:01;3.70;;;1.70;;
76989;SDS011;65924;47.250;11.332;2024-02-21T02:48:32;3.70;;;1.90;;
76989;SDS011;65924;47.250;11.332;2024-02-21T02:49:03;3.40;;;1.40;;
76989;SDS011;65924;47.250;11.332;2024-02-21T02:49:33;4.10;;;1.60;;
76989;SDS011;65924;47.250;11.332;2024-02-21T02:50:04;3.80;;;2.10;;
76989;SDS011;65924;47.250;11.332;2024-02-21T02:50:35;3.20;;;1.40;;
76989;SDS011;65924;47.250;11.332;2024-02-21T02:51:05;3.10;;;1.20;;
76989;SDS011;65924;47.250;11.332;2024-02-21T02:51:36;3.20;;;1.40;;
76989;SDS011;65924;47.250;11.332;2024-02-21T02:52:07;3.60;;;1.70;;
76989;SDS011;65924;47.250;11.332;2024-02-21T02:52:38;4.20;;;1.40;;
76989;SDS011;65924;47.250;11.332;2024-02-21T02:53:09;3.70;;;1.50;;
76989;SDS011;65924;47.250;11.332;2024-02-21T02:53:39;3.60;;;1.50;;
76989;SDS011;65924;47.250;11.332;2024-02-21T02:54:10;3.30;;;1.40;;
76989;SDS011;65924;47.250;11.332;2024-02-21T02:54:41;6.20;;;2.10;;
76989;SDS011;65924;47.250;11.332;2024-02-21T02:55:12;4.40;;;2.20;;
76989;SDS011;65924;47.250;11.332;2024-02-21T02:55:42;4.00;;;1.40;;
76989;SDS011;65924;47.250;11.332;2024-02-21T02:56:16;3.40;;;1.50;;
76989;SDS011;65924;47.250;11.332;2024-02-21T02:56:47;3.60;;;1.70;;
76989;SDS011;65924;47.250;11.332;2024-02-21T02:57:18;3.50;;;1.60;;
76989;SDS011;65924;47.250;11.332;2024-02-21T02:57:48;3.80;;;1.50;;
76989;SDS011;65924;47.250;11.332;2024-02-21T02:58:19;3.70;;;1.50;;
76989;SDS011;65924;47.250;11.332;2024-02-21T02:58:49;3.10;;;1.60;;
76989;SDS011;65924;47.250;11.332;2024-02-21T02:59:20;3.30;;;1.60;;
76989;SDS011;65924;47.250;11.332;2024-02-21T02:59:50;4.10;;;1.50;;
76989;SDS011;65924;47.250;11.332;2024-02-21T03:00:21;4.50;;;1.60;;
76989;SDS011;65924;47.250;11.332;2024-02-21T03:00:54;3.80;;;1.70;;
76989;SDS011;65924;47.250;11.332;2024-02-21T03:01:25;3.30;;;1.60;;
76989;SDS011;65924;47.250;11.332;2024-02-21T03:01:56;3.60;;;1.60;;
76989;SDS011;65924;47.250;11.332;2024-02-21T03:02:27;4.00;;;1.70;;
76989;SDS011;65924;47.250;11.332;2024-02-21T03:02:57;3.60;;;1.70;;
76989;SDS011;65924;47.250;11.332;2024-02-21T03:03:28;2.80;;;1.40;;
76989;SDS011;65924;47.250;11.332;2024-02-21T03:03:59;3.50;;;1.50;;
76989;SDS011;65924;47.250;11.332;2024-02-21T03:04:29;3.40;;;1.50;;
76989;SDS011;65924;47.250;11.332;2024-02-21T03:05:00;4.10;;;1.60;;
76989;SDS011;65924;47.250;11.332;2024-02-21T03:05:41;3.00;;;1.20;;
76989;SDS011;65924;47.250;11.332;2024-02-21T03:06:12;3.70;;;1.60;;